createdAt,value
2023-05-12T00:01:08.366Z,2.20
2023-05-12T00:03:35.362Z,2.40
2023-05-12T00:06:04.545Z,2.20
2023-05-12T00:08:31.627Z,2.37
2023-05-12T00:10:58.569Z,2.30
2023-05-12T00:13:25.377Z,2.40
2023-05-12T00:15:52.193Z,2.10
2023-05-12T00:18:19.076Z,2.13
2023-05-12T00:20:45.781Z,2.73
2023-05-12T00:23:12.512Z,2.30
2023-05-12T00:25:39.431Z,2.43
2023-05-12T00:28:06.256Z,2.40
2023-05-12T00:30:33.073Z,2.33
2023-05-12T00:32:59.814Z,2.50
2023-05-12T00:35:26.653Z,2.50
2023-05-12T00:37:53.482Z,2.10
2023-05-12T00:40:20.491Z,2.30
2023-05-12T00:42:47.412Z,2.70
2023-05-12T00:45:15.110Z,2.50
2023-05-12T00:47:42.162Z,2.80
2023-05-12T00:50:09.661Z,2.63
2023-05-12T00:52:36.749Z,3.00
2023-05-12T00:55:05.429Z,2.40
2023-05-12T00:57:33.987Z,2.60
2023-05-12T01:00:00.761Z,2.83
2023-05-12T01:02:27.566Z,2.47
2023-05-12T01:04:54.319Z,2.57
2023-05-12T01:07:22.918Z,2.27
2023-05-12T01:09:55.069Z,2.40
2023-05-12T01:12:22.132Z,2.67
2023-05-12T01:14:50.468Z,2.80
2023-05-12T01:17:20.836Z,2.60
2023-05-12T01:19:49.665Z,2.72
2023-05-12T01:22:17.508Z,2.70
2023-05-12T01:25:07.788Z,2.50
2023-05-12T01:27:34.947Z,2.70
2023-05-12T01:30:04.604Z,2.50
2023-05-12T01:32:31.470Z,2.40
2023-05-12T01:34:58.252Z,2.80
2023-05-12T01:37:27.071Z,2.90
2023-05-12T01:39:54.518Z,2.70
2023-05-12T01:42:21.793Z,2.50
2023-05-12T01:44:48.420Z,2.40
2023-05-12T01:47:16.202Z,2.70
2023-05-12T01:49:43.028Z,2.43
2023-05-12T01:52:09.815Z,2.60
2023-05-12T01:54:36.419Z,2.43
2023-05-12T01:57:03.172Z,2.50
2023-05-12T01:59:29.801Z,2.43
2023-05-12T02:01:56.511Z,2.47
2023-05-12T02:04:23.176Z,2.40
2023-05-12T02:06:50.086Z,2.50
2023-05-12T02:09:16.937Z,2.40
2023-05-12T02:11:43.609Z,2.20
2023-05-12T02:14:10.215Z,2.67
2023-05-12T02:16:37.094Z,2.50
2023-05-12T02:19:04.383Z,2.40
2023-05-12T02:21:31.502Z,2.13
2023-05-12T02:23:58.281Z,2.50
2023-05-12T02:26:25.040Z,2.63
2023-05-12T02:28:51.720Z,2.50
2023-05-12T02:31:18.418Z,2.60
2023-05-12T02:33:45.135Z,2.57
2023-05-12T02:36:11.809Z,2.40
2023-05-12T02:38:40.140Z,2.70
2023-05-12T02:41:07.754Z,2.60
2023-05-12T02:43:34.560Z,2.50
2023-05-12T02:46:01.680Z,2.50
2023-05-12T02:48:28.508Z,2.70
2023-05-12T02:50:55.240Z,2.40
2023-05-12T02:53:21.978Z,2.40
2023-05-12T02:55:49.145Z,2.53
2023-05-12T02:58:15.985Z,2.53
2023-05-12T03:00:42.650Z,2.17
2023-05-12T03:03:09.534Z,2.43
2023-05-12T03:05:36.425Z,2.40
2023-05-12T03:08:03.174Z,2.60
2023-05-12T03:10:31.131Z,2.60
2023-05-12T03:12:57.999Z,2.30
2023-05-12T03:15:24.773Z,2.40
2023-05-12T03:17:51.568Z,2.27
2023-05-12T03:20:18.497Z,2.10
2023-05-12T03:22:45.365Z,2.40
2023-05-12T03:25:12.617Z,2.60
2023-05-12T03:27:39.867Z,2.40
2023-05-12T03:30:07.331Z,2.40
2023-05-12T03:32:34.059Z,2.30
2023-05-12T03:35:00.837Z,3.00
2023-05-12T03:37:27.496Z,2.73
2023-05-12T03:39:56.320Z,2.30
2023-05-12T03:42:24.255Z,2.30
2023-05-12T03:44:52.226Z,2.40
2023-05-12T03:47:19.289Z,2.50
2023-05-12T03:49:46.006Z,2.40
2023-05-12T03:52:13.080Z,2.53
2023-05-12T03:54:39.958Z,2.33
2023-05-12T03:57:06.785Z,2.10
2023-05-12T03:59:33.549Z,2.20
2023-05-12T04:02:00.271Z,2.10
2023-05-12T04:04:26.966Z,2.30
2023-05-12T04:06:53.714Z,1.90
2023-05-12T04:09:21.534Z,1.90
2023-05-12T04:11:48.251Z,1.90
2023-05-12T04:14:15.327Z,2.03
2023-05-12T04:16:42.141Z,1.60
2023-05-12T04:19:08.964Z,1.80
2023-05-12T04:21:35.922Z,1.90
2023-05-12T04:24:02.568Z,1.70
2023-05-12T04:26:30.513Z,1.87
2023-05-12T04:28:57.172Z,1.83
2023-05-12T04:31:23.911Z,1.73
2023-05-12T04:33:52.022Z,1.80
2023-05-12T04:36:18.827Z,1.73
2023-05-12T04:38:45.987Z,1.70
2023-05-12T04:41:12.882Z,1.70
2023-05-12T04:46:09.446Z,1.85
2023-05-12T04:48:42.176Z,1.83
2023-05-12T04:51:09.196Z,1.73
2023-05-12T04:53:36.499Z,1.97
2023-05-12T04:56:03.765Z,1.87
2023-05-12T04:58:30.732Z,1.93
2023-05-12T05:00:57.440Z,1.77
2023-05-12T05:03:24.488Z,1.67
2023-05-12T05:05:51.282Z,2.17
2023-05-12T05:08:18.626Z,1.73
2023-05-12T05:10:45.438Z,1.80
2023-05-12T05:13:12.279Z,2.00
2023-05-12T05:15:39.040Z,1.90
2023-05-12T05:18:06.168Z,2.17
2023-05-12T05:20:34.692Z,1.57
2023-05-12T05:23:01.538Z,1.87
2023-05-12T05:25:28.412Z,1.80
2023-05-12T05:27:55.918Z,1.80
2023-05-12T05:30:22.636Z,1.80
2023-05-12T05:32:49.420Z,1.67
2023-05-12T05:35:16.150Z,1.90
2023-05-12T05:37:43.159Z,1.70
2023-05-12T05:40:10.147Z,1.90
2023-05-12T05:43:27.709Z,1.77
2023-05-12T05:45:56.107Z,1.80
2023-05-12T05:48:22.952Z,1.70
2023-05-12T05:50:51.732Z,1.97
2023-05-12T05:53:19.703Z,1.60
2023-05-12T05:55:48.765Z,1.93
2023-05-12T05:58:15.875Z,1.73
2023-05-12T06:00:43.753Z,2.00
2023-05-12T06:03:10.594Z,1.80
2023-05-12T06:05:38.083Z,1.97
2023-05-12T06:08:05.504Z,1.67
2023-05-12T06:10:32.323Z,1.70
2023-05-12T06:12:58.916Z,1.93
2023-05-12T06:15:25.622Z,1.83
2023-05-12T06:17:56.072Z,1.67
2023-05-12T06:20:23.603Z,1.70
2023-05-12T06:22:50.464Z,1.67
2023-05-12T06:25:22.797Z,1.90
2023-05-12T06:28:15.456Z,2.00
2023-05-12T06:30:42.280Z,1.87
2023-05-12T06:33:09.170Z,1.77
2023-05-12T06:35:35.919Z,1.90
2023-05-12T06:38:02.556Z,1.80
2023-05-12T06:40:29.257Z,1.90
2023-05-12T06:42:56.006Z,1.70
2023-05-12T06:45:23.783Z,1.80
2023-05-12T06:47:50.891Z,1.70
2023-05-12T06:50:24.199Z,1.70
2023-05-12T06:52:51.487Z,1.80
2023-05-12T06:55:20.769Z,1.80
2023-05-12T06:57:48.254Z,1.80
2023-05-12T07:00:15.264Z,1.30
2023-05-12T07:02:42.189Z,1.63
2023-05-12T07:05:09.029Z,1.70
2023-05-12T07:07:36.300Z,1.60
2023-05-12T07:10:02.963Z,1.50
2023-05-12T07:12:29.866Z,1.63
2023-05-12T07:14:56.508Z,1.77
2023-05-12T07:17:23.426Z,1.50
2023-05-12T07:19:50.133Z,1.70
2023-05-12T07:22:17.067Z,1.50
2023-05-12T07:24:44.570Z,1.60
2023-05-12T07:27:12.264Z,1.53
2023-05-12T07:29:38.899Z,1.90
2023-05-12T07:32:06.283Z,1.80
2023-05-12T07:34:34.180Z,1.47
2023-05-12T07:37:04.221Z,1.47
2023-05-12T07:39:32.564Z,1.38
2023-05-12T07:41:59.528Z,1.37
2023-05-12T07:44:27.612Z,2.00
2023-05-12T07:46:54.695Z,1.60
2023-05-12T07:49:23.482Z,1.47
2023-05-12T07:51:50.303Z,1.50
2023-05-12T07:54:16.983Z,1.43
2023-05-12T07:56:43.666Z,1.60
2023-05-12T07:59:11.031Z,1.50
2023-05-12T08:01:37.834Z,1.57
2023-05-12T08:04:04.909Z,1.53
2023-05-12T08:06:31.829Z,1.70
2023-05-12T08:08:59.096Z,1.70
2023-05-12T08:11:26.683Z,1.93
2023-05-12T08:13:53.800Z,1.70
2023-05-12T08:16:20.817Z,1.90
2023-05-12T08:18:47.633Z,1.70
2023-05-12T08:21:14.404Z,1.93
2023-05-12T08:23:41.096Z,1.53
2023-05-12T08:26:07.829Z,1.83
2023-05-12T08:28:34.451Z,1.57
2023-05-12T08:31:04.811Z,1.50
2023-05-12T08:33:31.885Z,1.37
2023-05-12T08:35:58.753Z,1.60
2023-05-12T08:38:25.508Z,1.47
2023-05-12T08:41:10.886Z,1.57
2023-05-12T08:43:52.184Z,1.60
2023-05-12T08:46:20.322Z,1.43
2023-05-12T08:48:48.263Z,1.73
2023-05-12T08:51:15.042Z,1.43
2023-05-12T08:53:42.586Z,1.50
2023-05-12T08:58:42.710Z,1.40
2023-05-12T09:01:12.076Z,1.50
2023-05-12T09:03:39.312Z,1.80
2023-05-12T09:06:06.952Z,1.70
2023-05-12T09:08:35.226Z,1.70
2023-05-12T09:11:04.286Z,1.57
2023-05-12T09:13:34.739Z,1.53
2023-05-12T09:16:02.957Z,1.77
2023-05-12T09:18:44.422Z,1.60
2023-05-12T09:21:12.277Z,1.63
2023-05-12T09:23:38.969Z,1.60
2023-05-12T09:26:05.747Z,1.30
2023-05-12T09:28:38.922Z,1.53
2023-05-12T09:31:19.200Z,1.50
2023-05-12T09:33:46.721Z,1.50
2023-05-12T09:36:21.538Z,1.60
2023-05-12T09:39:04.886Z,1.40
2023-05-12T09:41:35.082Z,1.60
2023-05-12T09:44:02.195Z,1.40
2023-05-12T09:46:32.220Z,1.60
2023-05-12T09:48:59.510Z,1.80
2023-05-12T09:51:27.074Z,1.80
2023-05-12T09:53:53.967Z,2.10
2023-05-12T09:56:21.441Z,1.70
2023-05-12T09:58:49.739Z,1.77
2023-05-12T10:01:23.732Z,1.80
2023-05-12T10:03:56.818Z,1.70
2023-05-12T10:06:37.580Z,1.97
2023-05-12T10:09:19.829Z,1.60
2023-05-12T10:11:47.919Z,1.67
2023-05-12T10:14:15.280Z,1.50
2023-05-12T10:16:42.029Z,1.90
2023-05-12T10:19:09.958Z,1.50
2023-05-12T10:21:38.330Z,1.30
2023-05-12T10:24:05.410Z,1.60
2023-05-12T10:26:37.711Z,1.40
2023-05-12T10:29:04.529Z,1.60
2023-05-12T10:31:31.635Z,1.50
2023-05-12T10:33:59.311Z,1.53
2023-05-12T10:36:26.393Z,1.33
2023-05-12T10:38:53.283Z,1.33
2023-05-12T10:41:31.131Z,1.70
2023-05-12T10:43:58.122Z,1.47
2023-05-12T10:46:26.794Z,1.40
2023-05-12T10:49:04.529Z,1.30
2023-05-12T10:51:33.853Z,1.20
2023-05-12T10:54:06.017Z,1.47
2023-05-12T10:56:38.799Z,1.50
2023-05-12T10:59:07.032Z,1.20
2023-05-12T11:01:34.699Z,1.20
2023-05-12T11:04:16.943Z,1.40
2023-05-12T11:06:45.220Z,1.50
2023-05-12T11:09:13.521Z,1.13
2023-05-12T11:11:40.847Z,1.60
2023-05-12T11:14:08.557Z,1.30
2023-05-12T11:16:42.184Z,1.43
2023-05-12T11:19:08.913Z,1.40
2023-05-12T11:21:35.993Z,1.60
2023-05-12T11:24:03.620Z,1.63
2023-05-12T11:26:30.511Z,1.30
2023-05-12T11:28:58.118Z,1.40
2023-05-12T11:31:25.193Z,1.40
2023-05-12T11:34:12.003Z,1.20
2023-05-12T11:36:42.472Z,1.33
2023-05-12T11:39:24.851Z,1.40
2023-05-12T11:41:59.306Z,1.40
2023-05-12T11:44:32.755Z,1.47
2023-05-12T11:47:01.828Z,1.40
2023-05-12T11:49:30.668Z,1.30
2023-05-12T11:52:02.597Z,1.37
2023-05-12T11:54:30.474Z,1.40
2023-05-12T11:56:59.116Z,1.30
2023-05-12T11:59:33.812Z,1.40
2023-05-12T12:02:02.517Z,1.30
2023-05-12T12:04:33.576Z,1.30
2023-05-12T12:07:01.375Z,1.33
2023-05-12T12:09:41.429Z,1.20
2023-05-12T12:14:38.205Z,1.50
2023-05-12T12:17:05.962Z,1.30
2023-05-12T12:19:32.755Z,1.30
2023-05-12T12:21:59.473Z,1.70
2023-05-12T12:24:26.505Z,1.50
2023-05-12T12:26:53.309Z,1.30
2023-05-12T12:29:20.099Z,1.40
2023-05-12T12:31:47.051Z,1.50
2023-05-12T12:34:14.284Z,1.57
2023-05-12T12:36:41.444Z,1.70
2023-05-12T12:39:08.227Z,1.43
2023-05-12T12:41:35.008Z,1.63
2023-05-12T12:44:01.635Z,1.30
2023-05-12T12:46:28.441Z,1.50
2023-05-12T12:48:55.126Z,1.40
2023-05-12T12:51:21.888Z,1.60
2023-05-12T12:53:48.595Z,1.47
2023-05-12T12:56:15.563Z,1.27
2023-05-12T12:58:42.240Z,1.30
2023-05-12T13:01:09.141Z,1.40
2023-05-12T13:03:35.896Z,1.60
2023-05-12T13:06:02.607Z,1.57
2023-05-12T13:08:29.850Z,1.30
2023-05-12T13:10:56.596Z,1.50
2023-05-12T13:13:24.693Z,1.83
2023-05-12T13:15:53.469Z,1.43
2023-05-12T13:18:20.882Z,1.50
2023-05-12T13:20:47.687Z,1.30
2023-05-12T13:23:14.787Z,1.57
2023-05-12T13:25:41.437Z,1.30
2023-05-12T13:28:08.505Z,1.37
2023-05-12T13:30:35.637Z,1.70
2023-05-12T13:33:05.121Z,1.53
2023-05-12T13:38:00.470Z,1.43
2023-05-12T13:40:27.647Z,1.20
2023-05-12T13:42:54.606Z,1.37
2023-05-12T13:45:21.476Z,1.30
2023-05-12T13:47:48.827Z,1.40
2023-05-12T13:50:15.689Z,1.40
2023-05-12T13:52:42.462Z,1.93
2023-05-12T13:55:09.964Z,1.40
2023-05-12T13:57:36.585Z,1.23
2023-05-12T14:00:03.670Z,1.20
2023-05-12T14:02:30.429Z,1.30
2023-05-12T14:04:57.148Z,1.47
2023-05-12T14:07:24.021Z,1.00
2023-05-12T14:09:50.664Z,1.27
2023-05-12T14:12:17.330Z,1.20
2023-05-12T14:14:49.696Z,1.10
2023-05-12T14:17:17.353Z,1.30
2023-05-12T14:19:44.260Z,1.33
2023-05-12T14:22:22.312Z,1.10
2023-05-12T14:24:51.882Z,1.00
2023-05-12T14:27:18.879Z,1.27
2023-05-12T14:29:45.504Z,1.10
2023-05-12T14:32:12.965Z,1.20
2023-05-12T14:34:39.668Z,1.20
2023-05-12T14:37:06.792Z,1.50
2023-05-12T14:39:33.478Z,1.20
2023-05-12T14:42:00.245Z,1.33
2023-05-12T14:44:27.041Z,1.30
2023-05-12T14:46:53.802Z,1.10
2023-05-12T14:49:21.830Z,1.20
2023-05-12T14:51:48.968Z,1.37
2023-05-12T14:54:25.144Z,1.30
2023-05-12T14:56:52.876Z,1.30
2023-05-12T14:59:19.776Z,1.30
2023-05-12T15:01:46.701Z,1.37
2023-05-12T15:04:13.554Z,1.43
2023-05-12T15:06:40.298Z,1.23
2023-05-12T15:09:07.391Z,1.30
2023-05-12T15:11:34.186Z,1.20
2023-05-12T15:14:00.806Z,1.50
2023-05-12T15:16:28.312Z,1.40
2023-05-12T15:18:55.455Z,1.87
2023-05-12T15:21:22.507Z,1.30
2023-05-12T15:23:49.496Z,1.40
2023-05-12T15:26:31.838Z,1.37
2023-05-12T15:29:00.258Z,1.30
2023-05-12T15:31:31.639Z,1.20
2023-05-12T15:33:59.567Z,1.40
2023-05-12T15:36:26.209Z,1.40
2023-05-12T15:38:52.976Z,1.63
2023-05-12T15:41:23.894Z,1.43
2023-05-12T15:43:50.582Z,1.50
2023-05-12T15:46:17.321Z,1.50
2023-05-12T15:48:44.207Z,1.30
2023-05-12T15:51:10.927Z,1.30
2023-05-12T15:53:37.656Z,1.80
2023-05-12T15:56:05.368Z,1.40
2023-05-12T15:58:32.350Z,1.53
2023-05-12T16:00:59.222Z,1.20
2023-05-12T16:03:26.325Z,1.50
2023-05-12T16:05:53.166Z,1.30
2023-05-12T16:08:20.573Z,1.20
2023-05-12T16:10:47.276Z,1.43
2023-05-12T16:13:14.750Z,1.47
2023-05-12T16:15:41.384Z,1.50
2023-05-12T16:18:11.091Z,1.47
2023-05-12T16:20:39.140Z,1.60
2023-05-12T16:23:05.914Z,1.47
2023-05-12T16:25:32.567Z,1.47
2023-05-12T16:27:59.252Z,1.70
2023-05-12T16:30:26.587Z,1.40
2023-05-12T16:32:53.498Z,1.33
2023-05-12T16:35:21.454Z,1.30
2023-05-12T16:37:48.326Z,1.13
2023-05-12T16:40:15.620Z,1.17
2023-05-12T16:42:42.868Z,1.40
2023-05-12T16:45:11.141Z,1.33
2023-05-12T16:47:38.030Z,1.30
2023-05-12T16:50:05.627Z,1.37
2023-05-12T16:52:32.277Z,1.30
2023-05-12T16:54:59.011Z,1.47
2023-05-12T16:57:25.987Z,1.50
2023-05-12T16:59:52.683Z,1.43
2023-05-12T17:02:19.442Z,1.43
2023-05-12T17:04:46.797Z,1.50
2023-05-12T17:07:13.484Z,1.53
2023-05-12T17:09:43.425Z,1.40
2023-05-12T17:12:11.074Z,1.60
2023-05-12T17:14:38.100Z,1.53
2023-05-12T17:17:05.261Z,1.53
2023-05-12T17:19:35.778Z,1.63
2023-05-12T17:22:02.561Z,1.50
2023-05-12T17:24:30.504Z,1.33
2023-05-12T17:26:57.884Z,1.60
2023-05-12T17:29:24.623Z,1.73
2023-05-12T17:31:51.490Z,1.60
2023-05-12T17:34:18.321Z,1.50
2023-05-12T17:36:45.111Z,1.60
2023-05-12T17:39:14.969Z,1.60
2023-05-12T17:41:42.731Z,1.50
2023-05-12T17:44:10.298Z,1.40
2023-05-12T17:46:37.088Z,1.73
2023-05-12T17:49:03.722Z,2.03
2023-05-12T17:51:30.710Z,1.60
2023-05-12T17:53:57.324Z,1.60
2023-05-12T17:56:24.037Z,1.67
2023-05-12T17:58:50.704Z,1.60
2023-05-12T18:01:17.556Z,1.40
2023-05-12T18:03:44.355Z,1.47
2023-05-12T18:06:12.946Z,1.60
2023-05-12T18:08:40.387Z,1.50
2023-05-12T18:11:07.767Z,1.70
2023-05-12T18:13:35.445Z,1.83
2023-05-12T18:16:02.902Z,1.60
2023-05-12T18:18:29.943Z,1.63
2023-05-12T18:20:56.893Z,1.50
2023-05-12T18:23:23.587Z,1.70
2023-05-12T18:25:51.267Z,1.60
2023-05-12T18:28:17.944Z,1.70
2023-05-12T18:30:44.785Z,1.60
2023-05-12T18:33:11.623Z,1.90
2023-05-12T18:35:38.455Z,1.70
2023-05-12T18:38:05.250Z,1.80
2023-05-12T18:40:31.903Z,1.90
2023-05-12T18:42:58.754Z,2.00
2023-05-12T18:45:25.412Z,2.10
2023-05-12T18:47:52.170Z,2.10
2023-05-12T18:50:19.512Z,2.10
2023-05-12T18:52:47.228Z,2.10
2023-05-12T18:55:13.923Z,2.60
2023-05-12T18:57:40.703Z,2.17
2023-05-12T19:00:10.083Z,1.97
2023-05-12T19:02:36.943Z,2.20
2023-05-12T19:05:05.071Z,2.10
2023-05-12T19:07:31.773Z,2.13
2023-05-12T19:09:59.487Z,2.40
2023-05-12T19:12:26.519Z,2.10
2023-05-12T19:14:53.298Z,2.20
2023-05-12T19:17:19.938Z,2.20
2023-05-12T19:19:46.871Z,2.37
2023-05-12T19:22:13.705Z,2.00
2023-05-12T19:24:40.572Z,2.20
2023-05-12T19:27:07.256Z,2.00
2023-05-12T19:29:33.891Z,1.80
2023-05-12T19:32:00.685Z,2.07
2023-05-12T19:34:29.702Z,2.23
2023-05-12T19:36:58.361Z,2.03
2023-05-12T19:39:25.121Z,2.20
2023-05-12T19:41:51.889Z,2.10
2023-05-12T19:44:18.734Z,2.47
2023-05-12T19:46:48.850Z,2.20
2023-05-12T19:49:15.839Z,2.20
2023-05-12T19:51:43.669Z,2.20
2023-05-12T19:54:10.637Z,2.20
2023-05-12T19:56:37.643Z,2.37
2023-05-12T19:59:04.354Z,2.40
2023-05-12T20:01:31.134Z,2.53
2023-05-12T20:03:59.036Z,2.27
2023-05-12T20:06:25.748Z,2.20
2023-05-12T20:08:52.747Z,2.10
2023-05-12T20:11:19.522Z,2.37
2023-05-12T20:13:46.277Z,2.33
2023-05-12T20:16:13.134Z,2.43
2023-05-12T20:18:40.463Z,2.10
2023-05-12T20:21:07.177Z,2.30
2023-05-12T20:23:33.893Z,2.13
2023-05-12T20:26:00.938Z,2.33
2023-05-12T20:28:28.441Z,2.57
2023-05-12T20:30:55.253Z,2.40
2023-05-12T20:33:21.973Z,2.60
2023-05-12T20:35:48.766Z,2.30
2023-05-12T20:38:15.462Z,2.40
2023-05-12T20:40:42.234Z,2.27
2023-05-12T20:43:08.932Z,2.40
2023-05-12T20:45:36.580Z,2.20
2023-05-12T20:48:03.419Z,2.10
2023-05-12T20:50:30.918Z,2.20
2023-05-12T20:52:57.674Z,1.90
2023-05-12T20:55:25.797Z,2.10
2023-05-12T20:57:52.534Z,2.10
2023-05-12T21:00:19.527Z,2.20
2023-05-12T21:02:47.322Z,2.20
2023-05-12T21:05:14.197Z,1.90
2023-05-12T21:07:41.028Z,2.07
2023-05-12T21:10:08.212Z,2.53
2023-05-12T21:12:34.940Z,2.30
2023-05-12T21:15:02.016Z,2.10
2023-05-12T21:17:28.659Z,2.20
2023-05-12T21:19:55.458Z,2.20
2023-05-12T21:22:22.178Z,1.97
2023-05-12T21:24:51.068Z,1.90
2023-05-12T21:27:18.434Z,2.23
2023-05-12T21:29:45.043Z,2.20
2023-05-12T21:32:11.883Z,2.00
2023-05-12T21:34:38.627Z,2.00
2023-05-12T21:37:05.531Z,2.50
2023-05-12T21:39:32.173Z,2.10
2023-05-12T21:41:59.107Z,1.80
2023-05-12T21:44:25.721Z,2.00
2023-05-12T21:46:52.428Z,2.40
2023-05-12T21:49:19.345Z,2.30
2023-05-12T21:51:47.041Z,2.03
2023-05-12T21:54:13.812Z,2.30
2023-05-12T21:56:40.790Z,2.10
2023-05-12T21:59:07.496Z,2.40
2023-05-12T22:01:34.191Z,2.37
2023-05-12T22:04:00.896Z,2.30
2023-05-12T22:06:27.642Z,2.43
2023-05-12T22:08:54.376Z,2.07
2023-05-12T22:11:21.876Z,2.10
2023-05-12T22:13:48.571Z,2.20
2023-05-12T22:16:15.562Z,2.33
2023-05-12T22:18:45.520Z,2.20
2023-05-12T22:21:12.905Z,2.15
2023-05-12T22:23:40.124Z,2.20
2023-05-12T22:26:06.800Z,2.10
2023-05-12T22:28:33.553Z,2.47
2023-05-12T22:31:00.416Z,2.30
2023-05-12T22:33:27.355Z,2.27
2023-05-12T22:35:54.008Z,2.33
2023-05-12T22:38:20.636Z,2.30
2023-05-12T22:40:50.535Z,2.13
2023-05-12T22:43:17.876Z,2.20
2023-05-12T22:45:44.572Z,2.20
2023-05-12T22:48:11.311Z,2.17
2023-05-12T22:50:37.994Z,1.90
2023-05-12T22:53:04.658Z,1.90
2023-05-12T22:55:31.460Z,2.17
2023-05-12T22:58:00.044Z,2.00
2023-05-12T23:00:27.142Z,2.17
2023-05-12T23:02:54.150Z,2.40
2023-05-12T23:05:21.169Z,2.10
2023-05-12T23:07:48.031Z,2.20
2023-05-12T23:10:14.645Z,2.30
2023-05-12T23:12:41.465Z,2.50
2023-05-12T23:15:08.755Z,2.17
2023-05-12T23:17:35.672Z,2.10
2023-05-12T23:20:02.389Z,2.43
2023-05-12T23:22:29.100Z,2.33
2023-05-12T23:24:58.426Z,2.23
2023-05-12T23:27:26.403Z,2.20
2023-05-12T23:29:53.556Z,2.13
2023-05-12T23:32:20.397Z,2.40
2023-05-12T23:34:47.189Z,2.20
2023-05-12T23:37:14.110Z,2.40
2023-05-12T23:39:40.797Z,2.30
2023-05-12T23:42:07.480Z,2.37
2023-05-12T23:44:34.149Z,2.57
2023-05-12T23:47:01.132Z,2.30
2023-05-12T23:49:27.933Z,2.20
2023-05-12T23:51:54.949Z,2.10
2023-05-12T23:54:21.704Z,2.37
2023-05-12T23:56:48.347Z,2.40
2023-05-12T23:59:15.207Z,2.30
